createdAt,value
2019-01-03T00:01:01.098Z,67.85
2019-01-03T00:06:21.403Z,68.38
2019-01-03T00:11:38.291Z,67.77
2019-01-03T00:16:58.914Z,68.03
2019-01-03T00:22:23.236Z,67.64
2019-01-03T00:27:43.248Z,68.05
2019-01-03T00:33:10.191Z,68.27
2019-01-03T00:38:25.406Z,68.55
2019-01-03T00:43:45.512Z,68.54
2019-01-03T00:49:07.051Z,68.60
2019-01-03T00:54:34.278Z,68.34
2019-01-03T00:59:56.941Z,68.43
2019-01-03T01:05:33.424Z,68.31
2019-01-03T01:10:55.478Z,68.01
2019-01-03T01:16:16.110Z,68.26
2019-01-03T01:21:37.802Z,67.89
2019-01-03T01:26:57.884Z,68.49
2019-01-03T01:32:17.407Z,68.52
2019-01-03T01:37:50.337Z,68.91
2019-01-03T01:43:24.867Z,69.40
2019-01-03T01:48:44.973Z,68.96
2019-01-03T01:54:01.759Z,69.77
2019-01-03T01:59:31.929Z,69.95
2019-01-03T02:04:57.148Z,69.61
2019-01-03T02:10:11.005Z,69.47
2019-01-03T02:15:50.555Z,69.62
2019-01-03T02:21:27.064Z,69.55
2019-01-03T02:26:47.649Z,70.17
2019-01-03T02:32:09.054Z,70.69
2019-01-03T02:37:29.595Z,71.42
2019-01-03T02:42:44.403Z,71.26
2019-01-03T02:48:04.888Z,71.53
2019-01-03T02:53:19.777Z,71.11
2019-01-03T02:58:41.401Z,71.39
2019-01-03T03:04:05.052Z,70.71
2019-01-03T03:09:21.726Z,71.14
2019-01-03T03:14:55.458Z,71.85
2019-01-03T03:20:16.063Z,72.18
2019-01-03T03:25:34.760Z,71.84
2019-01-03T03:31:11.619Z,72.16
2019-01-03T03:36:42.374Z,71.73
2019-01-03T03:42:09.937Z,71.34
2019-01-03T03:47:30.095Z,70.96
2019-01-03T03:52:50.550Z,71.46
2019-01-03T03:58:24.428Z,71.64
2019-01-03T04:03:44.402Z,71.71
2019-01-03T04:09:11.726Z,71.78
2019-01-03T04:14:28.403Z,71.42
2019-01-03T04:19:49.966Z,71.11
2019-01-03T04:25:03.579Z,70.59
2019-01-03T04:30:19.922Z,70.67
2019-01-03T04:35:40.374Z,70.89
2019-01-03T04:41:00.405Z,71.04
2019-01-03T04:46:22.376Z,71.15
2019-01-03T04:51:52.178Z,70.93
2019-01-03T04:57:12.311Z,70.35
2019-01-03T05:02:37.767Z,70.16
2019-01-03T05:07:57.915Z,69.87
2019-01-03T05:13:34.552Z,69.66
2019-01-03T05:19:11.193Z,69.29
2019-01-03T05:24:35.810Z,69.67
2019-01-03T05:30:00.205Z,69.48
2019-01-03T05:35:14.586Z,68.98
2019-01-03T05:40:54.299Z,68.78
2019-01-03T05:46:14.868Z,68.42
2019-01-03T05:51:35.207Z,68.67
2019-01-03T05:56:55.064Z,68.06
2019-01-03T06:02:17.520Z,68.10
2019-01-03T06:07:45.013Z,68.64
2019-01-03T06:13:06.038Z,68.70
2019-01-03T06:18:26.056Z,68.27
2019-01-03T06:23:50.442Z,68.32
2019-01-03T06:29:21.150Z,68.25
2019-01-03T06:34:43.019Z,68.18
2019-01-03T06:40:19.498Z,68.77
2019-01-03T06:45:41.120Z,67.94
2019-01-03T06:51:04.418Z,67.41
2019-01-03T06:56:30.626Z,67.42
2019-01-03T07:02:01.099Z,67.04
2019-01-03T07:07:41.167Z,67.60
2019-01-03T07:13:08.740Z,67.06
2019-01-03T07:18:36.054Z,66.65
2019-01-03T07:24:00.649Z,66.91
2019-01-03T07:29:34.773Z,67.38
2019-01-03T07:35:14.453Z,66.54
2019-01-03T07:40:44.482Z,66.83
2019-01-03T07:46:04.546Z,67.13
2019-01-03T07:51:25.022Z,67.16
2019-01-03T07:56:45.688Z,67.08
2019-01-03T08:02:06.150Z,66.97
2019-01-03T08:07:35.114Z,66.77
2019-01-03T08:13:02.332Z,66.68
2019-01-03T08:18:31.634Z,66.43
2019-01-03T08:24:00.821Z,65.68
2019-01-03T08:29:18.468Z,65.32
2019-01-03T08:34:48.523Z,64.45
2019-01-03T08:40:11.818Z,64.25
2019-01-03T08:45:42.623Z,64.37
2019-01-03T08:51:19.078Z,63.69
2019-01-03T08:56:46.092Z,63.65
2019-01-03T09:02:06.554Z,63.08
2019-01-03T09:07:39.012Z,62.91
2019-01-03T09:12:56.059Z,62.77
2019-01-03T09:18:17.188Z,61.25
2019-01-03T09:23:48.216Z,61.32
2019-01-03T09:29:10.419Z,60.44
2019-01-03T09:34:24.424Z,60.15
2019-01-03T09:39:50.061Z,59.29
2019-01-03T09:44:52.031Z,58.43
2019-01-03T09:49:54.191Z,59.38
2019-01-03T09:54:56.099Z,57.93
2019-01-03T09:59:58.121Z,57.67
2019-01-03T10:05:12.845Z,57.91
2019-01-03T10:10:14.774Z,58.26
2019-01-03T10:15:16.892Z,58.51
2019-01-03T10:20:18.826Z,57.41
2019-01-03T10:25:20.734Z,57.75
2019-01-03T10:30:23.628Z,58.99
2019-01-03T10:35:25.543Z,57.18
2019-01-03T10:40:27.491Z,57.55
2019-01-03T10:45:29.411Z,57.63
2019-01-03T10:50:31.622Z,58.17
2019-01-03T10:55:33.538Z,57.56
2019-01-03T11:00:35.656Z,58.15
2019-01-03T11:05:37.932Z,58.88
2019-01-03T11:10:40.200Z,58.06
2019-01-03T11:15:43.700Z,57.05
2019-01-03T11:21:06.835Z,57.10
2019-01-03T11:26:09.554Z,57.62
2019-01-03T11:31:12.459Z,57.66
2019-01-03T11:36:14.987Z,58.35
2019-01-03T11:41:35.732Z,58.96
2019-01-03T11:46:57.072Z,57.89
2019-01-03T11:52:17.616Z,57.26
2019-01-03T11:57:38.082Z,56.98
2019-01-03T12:02:58.612Z,56.84
2019-01-03T12:08:19.115Z,57.11
2019-01-03T12:13:39.779Z,58.16
2019-01-03T12:19:01.384Z,59.07
2019-01-03T12:24:30.562Z,59.77
2019-01-03T12:29:49.248Z,60.66
2019-01-03T12:35:11.802Z,61.36
2019-01-03T12:40:35.514Z,61.51
2019-01-03T12:45:57.528Z,60.88
2019-01-03T12:51:19.311Z,59.60
2019-01-03T12:56:41.044Z,59.98
2019-01-03T13:02:02.897Z,61.73
2019-01-03T13:07:24.809Z,61.43
2019-01-03T13:12:49.022Z,62.16
2019-01-03T13:18:11.629Z,62.96
2019-01-03T13:23:41.598Z,62.21
2019-01-03T13:29:09.037Z,62.49
2019-01-03T13:34:34.113Z,61.95
2019-01-03T13:39:55.106Z,61.84
2019-01-03T13:45:16.582Z,62.23
2019-01-03T13:50:38.107Z,63.05
2019-01-03T14:02:35.168Z,65.25
2019-01-03T14:07:56.235Z,64.81
2019-01-03T14:13:17.636Z,63.86
2019-01-03T14:18:38.703Z,64.43
2019-01-03T14:23:59.947Z,66.73
2019-01-03T14:29:02.789Z,68.06
2019-01-03T14:34:06.977Z,67.98
2019-01-03T14:39:09.490Z,67.13
2019-01-03T14:44:37.152Z,67.99
2019-01-03T14:49:48.998Z,68.46
2019-01-03T14:54:53.204Z,68.43
2019-01-03T14:59:59.796Z,68.40
2019-01-03T15:05:14.310Z,68.99
2019-01-03T15:10:24.276Z,69.94
2019-01-03T15:15:47.133Z,70.43
2019-01-03T15:20:58.124Z,70.10
2019-01-03T15:26:02.359Z,70.19
2019-01-03T15:31:11.007Z,70.42
2019-01-03T15:36:16.367Z,70.77
2019-01-03T15:41:18.884Z,70.16
2019-01-03T15:46:21.216Z,69.77
2019-01-03T15:51:25.171Z,70.25
2019-01-03T15:56:28.783Z,70.78
2019-01-03T16:01:31.389Z,71.05
2019-01-03T16:06:39.023Z,71.33
2019-01-03T16:11:42.738Z,70.59
2019-01-03T16:16:45.671Z,69.30
2019-01-03T16:21:49.876Z,68.37
2019-01-03T16:26:52.914Z,68.44
2019-01-03T16:31:55.436Z,68.16
2019-01-03T16:36:57.805Z,67.69
2019-01-03T16:42:00.351Z,67.58
2019-01-03T16:47:05.021Z,67.39
2019-01-03T16:52:08.795Z,68.41
2019-01-03T16:57:11.083Z,69.10
2019-01-03T17:02:14.633Z,69.39
2019-01-03T17:07:18.241Z,68.41
2019-01-03T17:12:22.860Z,68.64
2019-01-03T17:17:26.586Z,68.43
2019-01-03T17:22:29.038Z,68.50
2019-01-03T17:27:32.417Z,68.47
2019-01-03T17:32:35.164Z,68.81
2019-01-03T17:37:37.628Z,69.12
2019-01-03T17:42:41.107Z,69.81
2019-01-03T17:47:43.609Z,69.88
2019-01-03T17:52:46.335Z,70.18
2019-01-03T17:57:48.812Z,70.74
2019-01-03T18:02:51.842Z,71.49
2019-01-03T18:07:55.407Z,71.65
2019-01-03T18:12:58.131Z,71.59
2019-01-03T18:18:00.793Z,71.95
2019-01-03T18:23:03.377Z,71.88
2019-01-03T18:28:07.975Z,71.95
2019-01-03T18:33:14.034Z,71.88
2019-01-03T18:38:16.611Z,72.21
2019-01-03T18:43:19.732Z,72.18
2019-01-03T18:48:23.846Z,71.87
2019-01-03T18:53:26.625Z,71.84
2019-01-03T18:58:29.950Z,72.08
2019-01-03T19:03:32.810Z,71.93
2019-01-03T19:08:36.510Z,72.54
2019-01-03T19:13:39.167Z,72.49
2019-01-03T19:18:41.847Z,72.89
2019-01-03T19:23:44.368Z,73.44
2019-01-03T19:28:46.965Z,73.63
2019-01-03T19:33:49.344Z,73.90
2019-01-03T19:38:52.074Z,73.39
2019-01-03T19:43:54.908Z,73.54
2019-01-03T19:48:57.515Z,73.73
2019-01-03T19:54:00.006Z,73.97
2019-01-03T19:59:02.419Z,74.03
2019-01-03T20:04:05.054Z,74.58
2019-01-03T20:09:07.567Z,74.80
2019-01-03T20:14:10.110Z,75.04
2019-01-03T20:19:14.028Z,74.96
2019-01-03T20:24:23.063Z,75.12
2019-01-03T20:29:28.615Z,74.92
2019-01-03T20:34:41.941Z,74.62
2019-01-03T20:39:47.528Z,74.81
2019-01-03T20:44:58.672Z,75.03
2019-01-03T20:50:10.960Z,74.84
2019-01-03T20:55:17.248Z,74.92
2019-01-03T21:00:21.880Z,74.66
2019-01-03T21:05:25.060Z,74.38
2019-01-03T21:10:27.799Z,74.38
2019-01-03T21:15:30.443Z,74.74
2019-01-03T21:20:33.582Z,74.37
2019-01-03T21:25:36.595Z,74.26
2019-01-03T21:30:41.184Z,74.39
2019-01-03T21:35:45.371Z,74.12
2019-01-03T21:47:07.705Z,74.72
2019-01-03T21:52:14.812Z,74.69
2019-01-03T21:57:21.919Z,74.94
2019-01-03T22:02:26.077Z,75.25
2019-01-03T22:07:30.909Z,75.94
2019-01-03T22:12:36.712Z,75.75
2019-01-03T22:17:39.569Z,75.51
2019-01-03T22:22:42.267Z,76.12
2019-01-03T22:27:46.326Z,76.09
2019-01-03T22:32:48.744Z,76.40
2019-01-03T22:37:51.447Z,76.85
2019-01-03T22:42:54.909Z,76.61
2019-01-03T22:47:57.836Z,76.90
2019-01-03T22:53:01.309Z,77.03
2019-01-03T22:58:06.839Z,76.76
2019-01-03T23:03:12.578Z,76.64
2019-01-03T23:08:15.514Z,76.99
2019-01-03T23:13:18.294Z,76.91
2019-01-03T23:18:21.128Z,76.56
2019-01-03T23:23:26.307Z,76.52
2019-01-03T23:28:29.238Z,76.32
2019-01-03T23:33:31.854Z,76.32
2019-01-03T23:38:34.542Z,76.05
2019-01-03T23:44:54.111Z,76.55
2019-01-03T23:50:03.788Z,77.44
2019-01-03T23:55:07.286Z,78.02
